createdAt,value
2018-07-07T00:00:53.117Z,27.90
2018-07-07T00:03:21.981Z,27.80
2018-07-07T00:05:50.735Z,27.80
2018-07-07T00:08:19.463Z,27.80
2018-07-07T00:10:54.395Z,27.70
2018-07-07T00:13:23.116Z,27.70
2018-07-07T00:15:51.752Z,27.70
2018-07-07T00:18:20.166Z,27.70
2018-07-07T00:20:48.593Z,27.80
2018-07-07T00:23:17.034Z,27.70
2018-07-07T00:25:45.595Z,27.70
2018-07-07T00:28:14.716Z,27.70
2018-07-07T00:30:43.514Z,27.70
2018-07-07T00:33:12.080Z,27.70
2018-07-07T00:35:40.532Z,27.70
2018-07-07T00:40:37.330Z,27.70
2018-07-07T00:43:05.913Z,27.80
2018-07-07T00:45:34.960Z,27.80
2018-07-07T00:48:03.517Z,27.80
2018-07-07T00:50:31.956Z,27.60
2018-07-07T00:53:00.542Z,27.50
2018-07-07T00:55:29.312Z,27.50
2018-07-07T00:57:57.966Z,27.50
2018-07-07T01:00:36.533Z,27.50
2018-07-07T01:03:05.316Z,27.50
2018-07-07T01:05:36.906Z,27.60
2018-07-07T01:08:05.359Z,27.60
2018-07-07T01:10:34.149Z,27.60
2018-07-07T01:13:02.614Z,27.60
2018-07-07T01:15:31.676Z,27.60
2018-07-07T01:18:00.572Z,27.50
2018-07-07T01:20:28.980Z,27.50
2018-07-07T01:22:57.460Z,27.50
2018-07-07T01:25:26.037Z,27.40
2018-07-07T01:27:54.504Z,27.40
2018-07-07T01:30:23.590Z,27.30
2018-07-07T01:32:52.228Z,27.30
2018-07-07T01:35:20.976Z,27.40
2018-07-07T01:37:49.509Z,27.30
2018-07-07T01:40:17.933Z,27.30
2018-07-07T01:42:46.835Z,27.30
2018-07-07T01:45:15.377Z,27.30
2018-07-07T01:47:43.789Z,27.40
2018-07-07T01:50:12.333Z,27.40
2018-07-07T01:52:41.171Z,27.30
2018-07-07T01:55:09.902Z,27.30
2018-07-07T01:57:38.311Z,27.30
2018-07-07T02:00:06.779Z,27.30
2018-07-07T02:02:35.280Z,27.30
2018-07-07T02:05:03.971Z,27.20
2018-07-07T02:07:32.404Z,27.20
2018-07-07T02:10:02.008Z,27.20
2018-07-07T02:14:59.040Z,27.20
2018-07-07T02:17:27.697Z,27.20
2018-07-07T02:19:56.151Z,27.20
2018-07-07T02:22:25.442Z,27.20
2018-07-07T02:24:54.161Z,27.20
2018-07-07T02:27:24.143Z,27.30
2018-07-07T02:29:53.516Z,27.30
2018-07-07T02:32:21.915Z,27.20
2018-07-07T02:34:51.064Z,27.10
2018-07-07T02:37:19.609Z,27.10
2018-07-07T02:42:16.517Z,27.00
2018-07-07T02:44:44.921Z,27.00
2018-07-07T02:47:13.682Z,27.00
2018-07-07T02:49:42.296Z,26.90
2018-07-07T02:52:11.189Z,26.90
2018-07-07T02:54:40.276Z,27.00
2018-07-07T02:57:08.693Z,27.00
2018-07-07T02:59:37.365Z,27.00
2018-07-07T03:02:05.752Z,27.00
2018-07-07T03:04:34.723Z,26.90
2018-07-07T03:07:03.307Z,27.00
2018-07-07T03:09:31.907Z,27.00
2018-07-07T03:12:00.351Z,27.00
2018-07-07T03:14:28.909Z,27.00
2018-07-07T03:16:57.521Z,27.00
2018-07-07T03:19:26.496Z,27.00
2018-07-07T03:21:55.141Z,27.00
2018-07-07T03:24:23.589Z,27.00
2018-07-07T03:26:52.090Z,27.00
2018-07-07T03:29:20.618Z,27.00
2018-07-07T03:31:49.185Z,26.90
2018-07-07T03:34:17.610Z,26.80
2018-07-07T03:36:46.524Z,26.90
2018-07-07T03:39:15.170Z,26.90
2018-07-07T03:41:43.691Z,26.90
2018-07-07T03:44:12.179Z,26.90
2018-07-07T03:46:41.442Z,26.90
2018-07-07T03:49:09.915Z,26.90
2018-07-07T03:51:38.586Z,26.90
2018-07-07T03:54:07.014Z,26.90
2018-07-07T03:56:35.452Z,26.90
2018-07-07T03:59:04.058Z,27.00
2018-07-07T04:01:32.753Z,27.00
2018-07-07T04:04:01.408Z,27.00
2018-07-07T04:06:30.182Z,26.90
2018-07-07T04:08:58.598Z,26.90
2018-07-07T04:11:27.218Z,27.00
2018-07-07T04:13:55.905Z,26.90
2018-07-07T04:16:24.687Z,27.00
2018-07-07T04:18:53.644Z,26.90
2018-07-07T04:21:22.288Z,26.90
2018-07-07T04:23:51.000Z,26.80
2018-07-07T04:26:19.399Z,26.80
2018-07-07T04:28:47.989Z,26.80
2018-07-07T04:31:16.468Z,27.00
2018-07-07T04:33:45.384Z,27.50
2018-07-07T04:36:13.839Z,28.00
2018-07-07T04:38:43.061Z,28.50
2018-07-07T04:41:11.528Z,28.90
2018-07-07T04:43:40.572Z,29.30
2018-07-07T04:46:09.105Z,29.50
2018-07-07T04:48:38.132Z,29.70
2018-07-07T04:51:06.630Z,29.90
2018-07-07T04:53:35.138Z,30.00
2018-07-07T04:56:03.853Z,30.00
2018-07-07T04:58:32.336Z,29.90
2018-07-07T05:01:00.929Z,29.50
2018-07-07T05:03:29.617Z,29.20
2018-07-07T05:05:58.243Z,28.80
2018-07-07T05:08:26.977Z,28.50
2018-07-07T05:10:55.441Z,28.10
2018-07-07T05:13:24.627Z,27.90
2018-07-07T05:15:53.258Z,27.70
2018-07-07T05:18:21.690Z,27.50
2018-07-07T05:20:50.254Z,27.40
2018-07-07T05:23:19.227Z,27.30
2018-07-07T05:25:47.813Z,27.30
2018-07-07T05:28:16.294Z,27.20
2018-07-07T05:30:44.684Z,27.20
2018-07-07T05:33:13.406Z,27.20
2018-07-07T05:35:41.809Z,27.20
2018-07-07T05:38:10.309Z,27.20
2018-07-07T05:40:39.260Z,27.20
2018-07-07T05:43:07.843Z,27.20
2018-07-07T05:45:36.417Z,27.20
2018-07-07T05:48:05.001Z,27.10
2018-07-07T05:50:33.438Z,27.10
2018-07-07T05:53:02.200Z,27.00
2018-07-07T05:55:30.719Z,26.90
2018-07-07T05:57:59.410Z,26.80
2018-07-07T06:00:28.257Z,26.80
2018-07-07T06:02:57.317Z,26.80
2018-07-07T06:05:25.832Z,26.80
2018-07-07T06:07:54.496Z,26.90
2018-07-07T06:10:23.100Z,26.90
2018-07-07T06:12:51.505Z,26.90
2018-07-07T06:15:20.062Z,26.80
2018-07-07T06:17:49.180Z,26.80
2018-07-07T06:20:17.609Z,26.70
2018-07-07T06:22:46.049Z,26.70
2018-07-07T06:25:14.545Z,26.90
2018-07-07T06:27:43.175Z,26.90
2018-07-07T06:30:11.634Z,26.90
2018-07-07T06:32:40.069Z,26.90
2018-07-07T06:35:08.481Z,26.80
2018-07-07T06:37:37.328Z,26.70
2018-07-07T06:40:06.173Z,26.80
2018-07-07T06:42:34.661Z,26.80
2018-07-07T06:45:03.332Z,26.70
2018-07-07T06:47:32.415Z,26.70
2018-07-07T06:50:01.004Z,26.70
2018-07-07T06:52:29.843Z,26.70
2018-07-07T06:54:58.262Z,26.70
2018-07-07T06:57:26.838Z,26.60
2018-07-07T06:59:55.288Z,26.60
2018-07-07T07:02:23.823Z,26.60
2018-07-07T07:04:52.339Z,26.60
2018-07-07T07:07:20.981Z,26.60
2018-07-07T07:09:49.529Z,26.60
2018-07-07T07:12:18.092Z,26.60
2018-07-07T07:14:46.705Z,26.60
2018-07-07T07:17:15.627Z,26.60
2018-07-07T07:19:44.663Z,26.60
2018-07-07T07:22:13.676Z,26.60
2018-07-07T07:24:42.773Z,26.60
2018-07-07T07:27:11.352Z,26.60
2018-07-07T07:29:40.207Z,26.60
2018-07-07T07:32:08.823Z,26.60
2018-07-07T07:34:37.936Z,26.60
2018-07-07T07:39:34.796Z,26.60
2018-07-07T07:42:03.315Z,26.60
2018-07-07T07:44:32.261Z,26.70
2018-07-07T07:47:00.949Z,26.70
2018-07-07T07:49:30.252Z,26.70
2018-07-07T07:51:59.016Z,26.70
2018-07-07T07:54:27.436Z,26.70
2018-07-07T07:56:56.301Z,26.70
2018-07-07T07:59:24.958Z,26.60
2018-07-07T08:01:53.513Z,26.60
2018-07-07T08:04:22.080Z,26.50
2018-07-07T08:06:50.741Z,26.50
2018-07-07T08:09:19.191Z,26.50
2018-07-07T08:11:47.869Z,26.50
2018-07-07T08:14:16.904Z,26.50
2018-07-07T08:16:45.270Z,26.60
2018-07-07T08:19:13.864Z,26.60
2018-07-07T08:21:42.251Z,26.70
2018-07-07T08:24:10.725Z,26.70
2018-07-07T08:26:39.376Z,26.70
2018-07-07T08:29:08.224Z,26.70
2018-07-07T08:31:36.827Z,26.80
2018-07-07T08:34:05.561Z,26.90
2018-07-07T08:36:34.541Z,26.80
2018-07-07T08:39:04.420Z,26.90
2018-07-07T08:41:33.666Z,26.90
2018-07-07T08:44:02.086Z,27.00
2018-07-07T08:46:31.436Z,26.90
2018-07-07T08:48:59.869Z,26.90
2018-07-07T08:51:28.321Z,26.80
2018-07-07T08:53:56.745Z,26.80
2018-07-07T08:56:25.725Z,26.80
2018-07-07T08:58:54.165Z,26.90
2018-07-07T09:01:23.310Z,26.90
2018-07-07T09:03:51.792Z,27.00
2018-07-07T09:06:20.261Z,27.10
2018-07-07T09:08:48.731Z,27.10
2018-07-07T09:11:17.360Z,27.10
2018-07-07T09:13:45.996Z,27.10
2018-07-07T09:16:14.622Z,27.10
2018-07-07T09:18:43.098Z,27.10
2018-07-07T09:21:12.631Z,27.20
2018-07-07T09:23:41.361Z,27.10
2018-07-07T09:26:09.953Z,27.10
2018-07-07T09:31:07.837Z,27.10
2018-07-07T09:33:36.476Z,27.10
2018-07-07T09:36:05.491Z,27.10
2018-07-07T09:38:34.091Z,27.20
2018-07-07T09:41:02.908Z,27.20
2018-07-07T09:43:31.596Z,27.20
2018-07-07T09:46:00.432Z,27.20
2018-07-07T09:48:29.015Z,27.20
2018-07-07T09:50:57.930Z,27.20
2018-07-07T09:53:26.743Z,27.20
2018-07-07T09:55:55.363Z,27.20
2018-07-07T09:58:24.119Z,27.20
2018-07-07T10:00:52.813Z,27.30
2018-07-07T10:03:27.764Z,27.20
2018-07-07T10:05:56.870Z,27.20
2018-07-07T10:08:25.309Z,27.20
2018-07-07T10:10:54.022Z,27.20
2018-07-07T10:13:22.479Z,27.30
2018-07-07T10:15:50.967Z,27.40
2018-07-07T10:18:19.845Z,27.40
2018-07-07T10:20:48.888Z,27.40
2018-07-07T10:23:17.419Z,27.40
2018-07-07T10:25:45.932Z,27.50
2018-07-07T10:28:14.491Z,27.50
2018-07-07T10:30:43.705Z,27.50
2018-07-07T10:33:12.201Z,27.50
2018-07-07T10:35:40.651Z,27.50
2018-07-07T10:38:09.390Z,27.50
2018-07-07T10:40:38.213Z,27.50
2018-07-07T10:43:07.101Z,27.60
2018-07-07T10:48:04.077Z,27.70
2018-07-07T10:50:32.748Z,27.70
2018-07-07T10:53:01.774Z,27.70
2018-07-07T10:55:30.391Z,27.80
2018-07-07T10:57:58.942Z,27.80
2018-07-07T11:00:27.595Z,27.80
2018-07-07T11:02:56.106Z,27.80
2018-07-07T11:07:55.102Z,27.70
2018-07-07T11:10:23.661Z,27.70
2018-07-07T11:12:52.269Z,27.70
2018-07-07T11:15:24.202Z,27.80
2018-07-07T11:17:53.014Z,27.90
2018-07-07T11:20:21.473Z,27.90
2018-07-07T11:22:50.050Z,28.00
2018-07-07T11:25:18.518Z,28.00
2018-07-07T11:27:47.009Z,28.00
2018-07-07T11:30:16.154Z,28.10
2018-07-07T11:32:44.729Z,28.10
2018-07-07T11:35:13.575Z,28.10
2018-07-07T11:37:42.313Z,28.10
2018-07-07T11:40:11.346Z,28.20
2018-07-07T11:42:39.929Z,28.10
2018-07-07T11:45:08.564Z,28.10
2018-07-07T11:47:37.746Z,28.10
2018-07-07T11:50:06.276Z,28.10
2018-07-07T11:52:34.846Z,28.10
2018-07-07T11:55:03.717Z,28.00
2018-07-07T11:57:32.716Z,27.90
2018-07-07T12:02:42.252Z,27.80
2018-07-07T12:05:10.702Z,27.80
2018-07-07T12:07:39.658Z,27.90
2018-07-07T12:10:08.536Z,27.90
2018-07-07T12:12:37.024Z,27.90
2018-07-07T12:15:06.519Z,28.00
2018-07-07T12:17:35.205Z,28.00
2018-07-07T12:22:32.597Z,28.10
2018-07-07T12:25:01.582Z,28.00
2018-07-07T12:27:30.277Z,28.10
2018-07-07T12:29:58.819Z,28.10
2018-07-07T12:32:27.199Z,28.10
2018-07-07T12:34:55.742Z,28.20
2018-07-07T12:37:24.393Z,28.30
2018-07-07T12:39:52.965Z,28.30
2018-07-07T12:42:21.441Z,28.30
2018-07-07T12:44:49.958Z,28.30
2018-07-07T12:47:18.304Z,28.30
2018-07-07T12:49:46.696Z,28.30
2018-07-07T12:52:15.628Z,28.30
2018-07-07T12:54:44.385Z,28.30
2018-07-07T12:57:12.927Z,28.30
2018-07-07T12:59:41.750Z,28.40
2018-07-07T13:02:10.276Z,28.30
2018-07-07T13:04:38.781Z,28.40
2018-07-07T13:07:07.257Z,28.40
2018-07-07T13:09:36.283Z,28.50
2018-07-07T13:12:04.686Z,28.60
2018-07-07T13:14:33.852Z,28.60
2018-07-07T13:17:02.224Z,28.60
2018-07-07T13:19:30.842Z,28.60
2018-07-07T13:21:59.844Z,28.60
2018-07-07T13:24:28.272Z,28.60
2018-07-07T13:26:57.829Z,28.60
2018-07-07T13:29:26.186Z,28.60
2018-07-07T13:31:54.583Z,28.60
2018-07-07T13:34:23.713Z,28.60
2018-07-07T13:36:52.900Z,28.60
2018-07-07T13:39:21.833Z,28.60
2018-07-07T13:41:50.433Z,28.60
2018-07-07T13:44:19.763Z,28.60
2018-07-07T13:46:48.261Z,28.60
2018-07-07T13:49:16.628Z,28.70
2018-07-07T13:51:45.055Z,28.60
2018-07-07T13:54:13.524Z,28.70
2018-07-07T13:56:43.320Z,28.70
2018-07-07T13:59:11.754Z,28.80
2018-07-07T14:04:08.429Z,28.90
2018-07-07T14:06:38.128Z,28.90
2018-07-07T14:09:08.407Z,28.90
2018-07-07T14:11:36.864Z,28.90
2018-07-07T14:14:05.544Z,28.90
2018-07-07T14:16:34.033Z,29.00
2018-07-07T14:19:02.585Z,30.00
2018-07-07T14:21:31.249Z,29.00
2018-07-07T14:23:59.703Z,29.10
2018-07-07T14:26:28.099Z,29.10
2018-07-07T14:28:56.772Z,29.10
2018-07-07T14:31:25.123Z,29.10
2018-07-07T14:33:53.527Z,29.10
2018-07-07T14:36:22.212Z,29.10
2018-07-07T14:38:50.599Z,29.30
2018-07-07T14:41:20.345Z,29.30
2018-07-07T14:43:56.656Z,29.30
2018-07-07T14:46:26.139Z,29.30
2018-07-07T14:48:54.575Z,29.30
2018-07-07T14:51:23.899Z,29.30
2018-07-07T14:53:52.365Z,29.30
2018-07-07T14:56:21.945Z,29.40
2018-07-07T14:58:51.236Z,29.30
2018-07-07T15:01:19.816Z,29.30
2018-07-07T15:03:48.492Z,29.30
2018-07-07T15:06:16.861Z,29.40
2018-07-07T15:08:45.409Z,29.40
2018-07-07T15:11:14.128Z,29.40
2018-07-07T15:13:42.488Z,29.50
2018-07-07T15:18:39.040Z,29.50
2018-07-07T15:21:07.453Z,29.50
2018-07-07T15:23:35.857Z,29.50
2018-07-07T15:26:04.423Z,29.50
2018-07-07T15:28:33.156Z,29.40
2018-07-07T15:35:58.370Z,29.30
2018-07-07T15:38:27.002Z,29.30
2018-07-07T15:40:55.859Z,29.30
2018-07-07T15:43:24.319Z,29.30
2018-07-07T15:45:52.700Z,29.30
2018-07-07T15:48:21.354Z,29.20
2018-07-07T15:50:49.759Z,29.20
2018-07-07T15:53:18.413Z,29.30
2018-07-07T15:55:46.956Z,29.30
2018-07-07T15:58:15.510Z,29.40
2018-07-07T16:00:44.084Z,29.50
2018-07-07T16:03:12.684Z,29.40
2018-07-07T16:05:41.168Z,29.40
2018-07-07T16:08:09.540Z,29.40
2018-07-07T16:10:38.411Z,29.40
2018-07-07T16:13:06.872Z,29.30
2018-07-07T16:15:35.906Z,29.30
2018-07-07T16:18:05.846Z,29.30
2018-07-07T16:20:34.641Z,29.30
2018-07-07T16:23:03.087Z,29.30
2018-07-07T16:25:31.515Z,29.30
2018-07-07T16:27:59.885Z,29.30
2018-07-07T16:30:29.636Z,29.30
2018-07-07T16:32:58.142Z,29.30
2018-07-07T16:35:26.727Z,29.30
2018-07-07T16:37:55.169Z,29.40
2018-07-07T16:40:23.581Z,29.40
2018-07-07T16:42:52.432Z,29.40
2018-07-07T16:45:21.064Z,29.40
2018-07-07T16:47:49.416Z,29.40
2018-07-07T16:50:18.177Z,29.40
2018-07-07T16:52:46.821Z,29.50
2018-07-07T16:55:15.405Z,29.50
2018-07-07T16:57:43.794Z,29.50
2018-07-07T17:00:12.920Z,29.50
2018-07-07T17:02:41.351Z,29.50
2018-07-07T17:05:09.740Z,29.50
2018-07-07T17:07:38.410Z,29.50
2018-07-07T17:10:06.960Z,29.50
2018-07-07T17:12:35.776Z,29.50
2018-07-07T17:15:04.512Z,29.50
2018-07-07T17:17:34.057Z,29.50
2018-07-07T17:20:02.519Z,29.50
2018-07-07T17:22:31.890Z,29.40
2018-07-07T17:25:02.014Z,29.40
2018-07-07T17:27:30.513Z,29.40
2018-07-07T17:29:59.657Z,29.40
2018-07-07T17:32:28.412Z,29.30
2018-07-07T17:34:57.610Z,29.30
2018-07-07T17:37:26.368Z,29.30
2018-07-07T17:39:56.117Z,29.30
2018-07-07T17:42:25.469Z,29.30
2018-07-07T17:45:02.328Z,29.30
2018-07-07T17:47:31.061Z,29.30
2018-07-07T17:50:01.898Z,29.20
2018-07-07T17:52:31.187Z,29.20
2018-07-07T17:54:59.685Z,29.20
2018-07-07T17:57:28.319Z,29.20
2018-07-07T17:59:58.082Z,29.20
2018-07-07T18:02:26.712Z,29.20
2018-07-07T18:04:55.638Z,29.20
2018-07-07T18:07:24.450Z,29.20
2018-07-07T18:09:53.566Z,29.20
2018-07-07T18:12:22.277Z,29.20
2018-07-07T18:14:51.224Z,29.10
2018-07-07T18:17:20.011Z,29.10
2018-07-07T18:19:48.657Z,29.10
2018-07-07T18:22:17.340Z,29.10
2018-07-07T18:24:46.233Z,29.10
2018-07-07T18:27:14.765Z,29.10
2018-07-07T18:29:43.547Z,29.20
2018-07-07T18:32:12.434Z,29.20
2018-07-07T18:34:41.968Z,29.20
2018-07-07T18:37:10.446Z,29.20
2018-07-07T18:39:38.892Z,29.20
2018-07-07T18:42:07.708Z,29.10
2018-07-07T18:44:36.265Z,29.10
2018-07-07T18:47:04.856Z,29.10
2018-07-07T18:52:03.016Z,29.00
2018-07-07T18:54:31.993Z,29.00
2018-07-07T18:57:00.916Z,29.00
2018-07-07T18:59:29.404Z,29.00
2018-07-07T19:01:58.501Z,29.00
2018-07-07T19:04:26.938Z,29.00
2018-07-07T19:06:55.459Z,28.90
2018-07-07T19:09:24.042Z,28.90
2018-07-07T19:11:52.565Z,28.90
2018-07-07T19:14:21.125Z,28.90
2018-07-07T19:16:49.627Z,28.90
2018-07-07T19:19:18.193Z,28.90
2018-07-07T19:21:52.145Z,28.90
2018-07-07T19:24:25.974Z,28.90
2018-07-07T19:26:55.514Z,28.80
2018-07-07T19:29:24.191Z,28.80
2018-07-07T19:31:58.267Z,28.70
2018-07-07T19:34:32.152Z,28.70
2018-07-07T19:37:06.333Z,28.70
2018-07-07T19:39:34.985Z,28.70
2018-07-07T19:42:04.022Z,28.70
2018-07-07T19:44:33.684Z,28.60
2018-07-07T19:47:02.155Z,28.60
2018-07-07T19:49:30.840Z,28.60
2018-07-07T19:51:59.267Z,28.60
2018-07-07T19:54:28.172Z,28.50
2018-07-07T19:56:56.975Z,28.50
2018-07-07T19:59:25.406Z,28.50
2018-07-07T20:01:53.809Z,28.50
2018-07-07T20:04:25.334Z,28.40
2018-07-07T20:06:57.407Z,28.40
2018-07-07T20:09:30.895Z,28.30
2018-07-07T20:12:03.512Z,28.20
2018-07-07T20:14:34.839Z,28.20
2018-07-07T20:17:11.081Z,28.20
2018-07-07T20:20:59.717Z,28.10
2018-07-07T20:23:37.036Z,28.20
2018-07-07T20:26:08.683Z,28.10
2018-07-07T20:28:46.525Z,28.10
2018-07-07T20:31:16.785Z,28.10
2018-07-07T20:33:45.425Z,28.10
2018-07-07T20:36:14.016Z,28.00
2018-07-07T20:38:42.678Z,28.10
2018-07-07T20:41:11.798Z,28.10
2018-07-07T20:43:40.376Z,28.10
2018-07-07T20:46:09.041Z,28.10
2018-07-07T20:48:37.666Z,28.00
2018-07-07T20:51:06.407Z,28.10
2018-07-07T20:53:35.516Z,28.10
2018-07-07T20:56:03.985Z,28.10
2018-07-07T20:58:32.873Z,28.00
2018-07-07T21:01:02.204Z,28.00
2018-07-07T21:03:32.074Z,28.00
2018-07-07T21:06:00.536Z,27.90
2018-07-07T21:08:29.881Z,28.00
2018-07-07T21:10:59.610Z,27.90
2018-07-07T21:13:28.248Z,27.90
2018-07-07T21:15:56.745Z,27.80
2018-07-07T21:18:25.281Z,27.80
2018-07-07T21:20:53.801Z,27.80
2018-07-07T21:23:22.475Z,27.70
2018-07-07T21:25:50.924Z,27.70
2018-07-07T21:28:19.421Z,27.80
2018-07-07T21:30:47.825Z,27.70
2018-07-07T21:33:16.434Z,27.80
2018-07-07T21:35:49.725Z,27.80
2018-07-07T21:38:22.907Z,27.80
2018-07-07T21:40:52.175Z,27.80
2018-07-07T21:43:21.300Z,27.80
2018-07-07T21:45:50.443Z,27.80
2018-07-07T21:48:19.502Z,27.70
2018-07-07T21:50:48.669Z,27.80
2018-07-07T21:53:17.397Z,27.90
2018-07-07T21:55:46.200Z,28.00
2018-07-07T21:58:20.300Z,28.00
2018-07-07T22:01:05.241Z,28.10
2018-07-07T22:03:39.186Z,28.10
2018-07-07T22:06:12.666Z,28.20
2018-07-07T22:08:41.563Z,28.20
2018-07-07T22:11:10.559Z,28.20
2018-07-07T22:13:39.385Z,28.20
2018-07-07T22:16:07.938Z,28.10
2018-07-07T22:18:36.642Z,28.00
2018-07-07T22:21:16.516Z,27.80
2018-07-07T22:23:44.925Z,27.70
2018-07-07T22:26:13.434Z,27.60
2018-07-07T22:28:41.820Z,27.60
2018-07-07T22:31:10.278Z,27.60
2018-07-07T22:33:39.225Z,27.60
2018-07-07T22:36:13.522Z,27.60
2018-07-07T22:38:47.556Z,27.60
2018-07-07T22:41:16.072Z,27.50
2018-07-07T22:43:44.859Z,27.50
2018-07-07T22:46:18.022Z,27.50
2018-07-07T22:48:46.797Z,27.50
2018-07-07T22:51:15.476Z,27.50
2018-07-07T22:53:44.056Z,27.50
2018-07-07T22:56:12.473Z,27.50
2018-07-07T22:58:41.022Z,27.40
2018-07-07T23:01:10.564Z,27.40
2018-07-07T23:03:39.001Z,27.40
2018-07-07T23:06:07.996Z,27.30
2018-07-07T23:08:36.815Z,27.30
2018-07-07T23:11:05.308Z,27.30
2018-07-07T23:13:33.998Z,27.30
2018-07-07T23:16:03.315Z,27.20
2018-07-07T23:18:31.943Z,27.20
2018-07-07T23:21:00.405Z,27.20
2018-07-07T23:23:28.937Z,27.20
2018-07-07T23:25:57.445Z,27.20
2018-07-07T23:28:26.913Z,27.20
2018-07-07T23:30:55.597Z,27.20
2018-07-07T23:33:24.379Z,27.20
2018-07-07T23:35:53.077Z,27.10
2018-07-07T23:38:21.533Z,27.10
2018-07-07T23:40:50.173Z,27.10
2018-07-07T23:43:19.580Z,27.10
2018-07-07T23:45:48.164Z,27.20
2018-07-07T23:48:16.762Z,27.20
2018-07-07T23:50:45.378Z,27.10
2018-07-07T23:53:13.935Z,27.20
2018-07-07T23:58:11.393Z,27.10
